sensor_id;sensor_type;location;lat;lon;timestamp;temperature;humidity
35305;DHT22;26433;48.034;-1.764;2022-10-19T05:00:12;18.50;99.90
35305;DHT22;26433;48.034;-1.764;2022-10-19T05:05:16;18.50;99.90
35305;DHT22;26433;48.034;-1.764;2022-10-19T05:10:19;18.50;99.90
35305;DHT22;26433;48.034;-1.764;2022-10-19T05:15:25;18.40;99.90
35305;DHT22;26433;48.034;-1.764;2022-10-19T05:20:28;18.40;99.90
35305;DHT22;26433;48.034;-1.764;2022-10-19T05:25:32;18.40;99.90
35305;DHT22;26433;48.034;-1.764;2022-10-19T05:30:37;18.40;99.90
35305;DHT22;26433;48.034;-1.764;2022-10-19T05:35:41;18.40;99.90
35305;DHT22;26433;48.034;-1.764;2022-10-19T05:40:44;18.40;99.90
35305;DHT22;26433;48.034;-1.764;2022-10-19T05:45:56;18.40;99.90
35305;DHT22;26433;48.034;-1.764;2022-10-19T05:51:00;18.30;99.90
35305;DHT22;26433;48.034;-1.764;2022-10-19T05:56:08;18.40;99.90
35305;DHT22;26433;48.034;-1.764;2022-10-19T06:01:14;18.30;99.90
35305;DHT22;26433;48.034;-1.764;2022-10-19T06:06:20;18.30;99.90
35305;DHT22;26433;48.034;-1.764;2022-10-19T06:11:25;18.30;99.90
35305;DHT22;26433;48.034;-1.764;2022-10-19T06:16:31;18.30;99.90
35305;DHT22;26433;48.034;-1.764;2022-10-19T06:21:35;18.20;99.90
35305;DHT22;26433;48.034;-1.764;2022-10-19T06:26:43;18.20;99.90
35305;DHT22;26433;48.034;-1.764;2022-10-19T06:31:48;18.20;99.90
35305;DHT22;26433;48.034;-1.764;2022-10-19T06:36:53;18.20;99.90
35305;DHT22;26433;48.034;-1.764;2022-10-19T06:41:56;18.20;99.90
35305;DHT22;26433;48.034;-1.764;2022-10-19T06:47:01;18.20;99.90
35305;DHT22;26433;48.034;-1.764;2022-10-19T06:52:05;18.20;99.90
35305;DHT22;26433;48.034;-1.764;2022-10-19T06:57:09;18.10;99.90
35305;DHT22;26433;48.034;-1.764;2022-10-19T07:02:14;18.20;99.90
35305;DHT22;26433;48.034;-1.764;2022-10-19T07:07:18;18.20;99.90
35305;DHT22;26433;48.034;-1.764;2022-10-19T07:12:21;18.20;99.90
35305;DHT22;26433;48.034;-1.764;2022-10-19T07:17:26;18.20;99.90
35305;DHT22;26433;48.034;-1.764;2022-10-19T07:22:30;18.20;99.90
35305;DHT22;26433;48.034;-1.764;2022-10-19T07:27:34;18.20;99.90
35305;DHT22;26433;48.034;-1.764;2022-10-19T07:32:41;18.20;99.90
35305;DHT22;26433;48.034;-1.764;2022-10-19T07:37:48;18.20;99.90
35305;DHT22;26433;48.034;-1.764;2022-10-19T07:42:52;18.20;99.90
35305;DHT22;26433;48.034;-1.764;2022-10-19T07:47:57;18.20;99.90
35305;DHT22;26433;48.034;-1.764;2022-10-19T07:53:01;18.20;99.90
35305;DHT22;26433;48.034;-1.764;2022-10-19T07:58:06;18.20;99.90
35305;DHT22;26433;48.034;-1.764;2022-10-19T08:03:11;18.30;99.90
35305;DHT22;26433;48.034;-1.764;2022-10-19T08:08:35;18.30;99.90
35305;DHT22;26433;48.034;-1.764;2022-10-19T08:13:39;18.30;99.90
35305;DHT22;26433;48.034;-1.764;2022-10-19T08:18:44;18.40;99.90
35305;DHT22;26433;48.034;-1.764;2022-10-19T08:23:47;18.50;99.90
35305;DHT22;26433;48.034;-1.764;2022-10-19T08:28:51;18.60;99.90
35305;DHT22;26433;48.034;-1.764;2022-10-19T08:33:56;18.70;99.90
35305;DHT22;26433;48.034;-1.764;2022-10-19T08:39:00;18.90;99.90
35305;DHT22;26433;48.034;-1.764;2022-10-19T08:44:15;19.00;99.90
35305;DHT22;26433;48.034;-1.764;2022-10-19T08:49:25;19.20;99.90
35305;DHT22;26433;48.034;-1.764;2022-10-19T08:54:34;19.40;99.90
35305;DHT22;26433;48.034;-1.764;2022-10-19T08:59:44;19.60;99.90
35305;DHT22;26433;48.034;-1.764;2022-10-19T09:04:54;19.90;99.80
35305;DHT22;26433;48.034;-1.764;2022-10-19T09:10:02;20.40;99.30
35305;DHT22;26433;48.034;-1.764;2022-10-19T09:15:10;20.90;98.50
35305;DHT22;26433;48.034;-1.764;2022-10-19T09:20:18;21.40;97.60
35305;DHT22;26433;48.034;-1.764;2022-10-19T09:25:24;21.90;96.90
35305;DHT22;26433;48.034;-1.764;2022-10-19T09:30:28;22.40;96.10
35305;DHT22;26433;48.034;-1.764;2022-10-19T09:35:39;22.70;95.40
35305;DHT22;26433;48.034;-1.764;2022-10-19T09:40:44;23.20;94.70
35305;DHT22;26433;48.034;-1.764;2022-10-19T09:45:51;23.60;93.90
35305;DHT22;26433;48.034;-1.764;2022-10-19T09:50:58;24.00;92.90
35305;DHT22;26433;48.034;-1.764;2022-10-19T09:56:04;24.40;92.00
35305;DHT22;26433;48.034;-1.764;2022-10-19T10:01:28;24.50;91.60
35305;DHT22;26433;48.034;-1.764;2022-10-19T10:06:47;24.70;90.70
35305;DHT22;26433;48.034;-1.764;2022-10-19T10:11:52;24.90;90.00
35305;DHT22;26433;48.034;-1.764;2022-10-19T10:17:04;25.00;89.60
35305;DHT22;26433;48.034;-1.764;2022-10-19T10:22:24;25.30;88.60
35305;DHT22;26433;48.034;-1.764;2022-10-19T10:27:31;25.40;87.00
35305;DHT22;26433;48.034;-1.764;2022-10-19T10:32:37;25.50;86.10
35305;DHT22;26433;48.034;-1.764;2022-10-19T10:37:47;25.60;84.80
35305;DHT22;26433;48.034;-1.764;2022-10-19T10:42:52;25.80;84.50
35305;DHT22;26433;48.034;-1.764;2022-10-19T10:47:57;26.00;83.00
35305;DHT22;26433;48.034;-1.764;2022-10-19T10:53:06;26.50;80.70
35305;DHT22;26433;48.034;-1.764;2022-10-19T10:58:14;26.60;79.30
35305;DHT22;26433;48.034;-1.764;2022-10-19T11:03:24;26.70;78.30
35305;DHT22;26433;48.034;-1.764;2022-10-19T11:08:32;26.70;77.30
35305;DHT22;26433;48.034;-1.764;2022-10-19T11:13:47;26.90;77.70
35305;DHT22;26433;48.034;-1.764;2022-10-19T11:18:54;27.30;75.70
35305;DHT22;26433;48.034;-1.764;2022-10-19T11:24:07;27.70;74.20
35305;DHT22;26433;48.034;-1.764;2022-10-19T11:29:28;27.70;73.80
35305;DHT22;26433;48.034;-1.764;2022-10-19T11:34:50;27.70;73.50
35305;DHT22;26433;48.034;-1.764;2022-10-19T11:40:07;27.90;72.40
35305;DHT22;26433;48.034;-1.764;2022-10-19T11:45:19;27.70;72.10
35305;DHT22;26433;48.034;-1.764;2022-10-19T11:50:35;27.70;72.20
35305;DHT22;26433;48.034;-1.764;2022-10-19T11:55:45;27.90;71.00
35305;DHT22;26433;48.034;-1.764;2022-10-19T12:00:58;27.90;70.20
35305;DHT22;26433;48.034;-1.764;2022-10-19T12:06:06;27.60;71.20
35305;DHT22;26433;48.034;-1.764;2022-10-19T12:11:23;27.50;71.10
35305;DHT22;26433;48.034;-1.764;2022-10-19T12:16:37;27.40;70.30
35305;DHT22;26433;48.034;-1.764;2022-10-19T12:21:41;27.40;70.40
35305;DHT22;26433;48.034;-1.764;2022-10-19T12:26:47;27.60;69.90
35305;DHT22;26433;48.034;-1.764;2022-10-19T12:31:53;27.80;69.30
35305;DHT22;26433;48.034;-1.764;2022-10-19T12:37:03;28.40;68.30
35305;DHT22;26433;48.034;-1.764;2022-10-19T12:42:16;29.10;67.00
35305;DHT22;26433;48.034;-1.764;2022-10-19T12:47:22;29.50;65.60
35305;DHT22;26433;48.034;-1.764;2022-10-19T12:52:38;29.60;65.30
35305;DHT22;26433;48.034;-1.764;2022-10-19T12:57:45;29.60;64.70
35305;DHT22;26433;48.034;-1.764;2022-10-19T13:02:56;29.60;64.90
35305;DHT22;26433;48.034;-1.764;2022-10-19T13:08:02;29.80;64.10
35305;DHT22;26433;48.034;-1.764;2022-10-19T13:19:16;29.60;63.70
35305;DHT22;26433;48.034;-1.764;2022-10-19T13:24:32;29.40;63.70
35305;DHT22;26433;48.034;-1.764;2022-10-19T13:29:39;29.20;63.80
35305;DHT22;26433;48.034;-1.764;2022-10-19T13:34:47;29.00;64.10
35305;DHT22;26433;48.034;-1.764;2022-10-19T13:39:50;28.80;64.10
35305;DHT22;26433;48.034;-1.764;2022-10-19T13:44:54;28.60;64.50
35305;DHT22;26433;48.034;-1.764;2022-10-19T13:50:11;28.30;64.90
35305;DHT22;26433;48.034;-1.764;2022-10-19T13:55:27;28.10;65.20
35305;DHT22;26433;48.034;-1.764;2022-10-19T14:00:48;28.10;65.50
35305;DHT22;26433;48.034;-1.764;2022-10-19T14:06:10;27.90;65.60
35305;DHT22;26433;48.034;-1.764;2022-10-19T14:11:18;27.80;65.90
35305;DHT22;26433;48.034;-1.764;2022-10-19T14:16:22;27.60;66.10
35305;DHT22;26433;48.034;-1.764;2022-10-19T14:21:31;27.60;66.00
35305;DHT22;26433;48.034;-1.764;2022-10-19T14:26:35;27.50;66.10
35305;DHT22;26433;48.034;-1.764;2022-10-19T14:31:39;27.30;66.20
35305;DHT22;26433;48.034;-1.764;2022-10-19T14:36:45;27.20;66.60
35305;DHT22;26433;48.034;-1.764;2022-10-19T14:41:52;27.40;66.30
35305;DHT22;26433;48.034;-1.764;2022-10-19T14:46:59;27.70;65.40
35305;DHT22;26433;48.034;-1.764;2022-10-19T14:52:04;28.00;64.90
35305;DHT22;26433;48.034;-1.764;2022-10-19T14:57:12;28.00;64.80
35305;DHT22;26433;48.034;-1.764;2022-10-19T15:02:20;27.80;65.00
35305;DHT22;26433;48.034;-1.764;2022-10-19T15:07:32;27.70;65.50
35305;DHT22;26433;48.034;-1.764;2022-10-19T15:12:37;27.40;65.90
35305;DHT22;26433;48.034;-1.764;2022-10-19T15:17:52;27.20;66.50
35305;DHT22;26433;48.034;-1.764;2022-10-19T15:22:57;27.00;67.10
35305;DHT22;26433;48.034;-1.764;2022-10-19T15:28:19;26.70;67.60
35305;DHT22;26433;48.034;-1.764;2022-10-19T15:33:22;26.50;68.10
35305;DHT22;26433;48.034;-1.764;2022-10-19T15:38:27;26.20;68.70
35305;DHT22;26433;48.034;-1.764;2022-10-19T15:43:42;26.10;69.20
35305;DHT22;26433;48.034;-1.764;2022-10-19T15:48:48;25.90;69.50
35305;DHT22;26433;48.034;-1.764;2022-10-19T15:53:58;25.70;69.80
35305;DHT22;26433;48.034;-1.764;2022-10-19T15:59:04;25.60;70.10
35305;DHT22;26433;48.034;-1.764;2022-10-19T16:04:08;25.40;70.40
35305;DHT22;26433;48.034;-1.764;2022-10-19T16:09:18;25.10;70.30
35305;DHT22;26433;48.034;-1.764;2022-10-19T16:14:22;24.90;70.20
35305;DHT22;26433;48.034;-1.764;2022-10-19T16:19:27;24.60;70.00
35305;DHT22;26433;48.034;-1.764;2022-10-19T16:24:33;24.50;70.60
35305;DHT22;26433;48.034;-1.764;2022-10-19T16:29:37;24.30;70.10
35305;DHT22;26433;48.034;-1.764;2022-10-19T16:34:40;24.30;70.20
35305;DHT22;26433;48.034;-1.764;2022-10-19T16:39:45;24.20;70.20
35305;DHT22;26433;48.034;-1.764;2022-10-19T16:44:49;24.00;70.40
35305;DHT22;26433;48.034;-1.764;2022-10-19T16:49:57;23.90;70.80
35305;DHT22;26433;48.034;-1.764;2022-10-19T16:55:03;23.70;71.20
35305;DHT22;26433;48.034;-1.764;2022-10-19T17:00:07;23.60;71.40
35305;DHT22;26433;48.034;-1.764;2022-10-19T17:05:11;23.40;72.00
35305;DHT22;26433;48.034;-1.764;2022-10-19T17:10:16;23.30;72.50
35305;DHT22;26433;48.034;-1.764;2022-10-19T17:15:20;23.10;72.80
35305;DHT22;26433;48.034;-1.764;2022-10-19T17:20:43;23.10;73.20
35305;DHT22;26433;48.034;-1.764;2022-10-19T17:25:48;23.10;73.40
35305;DHT22;26433;48.034;-1.764;2022-10-19T17:30:52;23.00;73.70
35305;DHT22;26433;48.034;-1.764;2022-10-19T17:36:02;22.80;74.20
35305;DHT22;26433;48.034;-1.764;2022-10-19T17:41:09;22.70;74.80
35305;DHT22;26433;48.034;-1.764;2022-10-19T17:46:15;22.60;75.40
35305;DHT22;26433;48.034;-1.764;2022-10-19T17:51:21;22.50;75.90
35305;DHT22;26433;48.034;-1.764;2022-10-19T17:56:27;22.50;76.10
35305;DHT22;26433;48.034;-1.764;2022-10-19T18:01:31;22.40;76.50
35305;DHT22;26433;48.034;-1.764;2022-10-19T18:06:36;22.30;77.40
35305;DHT22;26433;48.034;-1.764;2022-10-19T18:11:42;22.20;77.50
35305;DHT22;26433;48.034;-1.764;2022-10-19T18:16:46;22.10;78.00
35305;DHT22;26433;48.034;-1.764;2022-10-19T18:21:50;22.00;78.40
35305;DHT22;26433;48.034;-1.764;2022-10-19T18:26:55;22.00;78.70
35305;DHT22;26433;48.034;-1.764;2022-10-19T18:31:59;21.90;79.30
35305;DHT22;26433;48.034;-1.764;2022-10-19T18:37:03;21.80;79.80
35305;DHT22;26433;48.034;-1.764;2022-10-19T18:42:08;21.70;80.30
35305;DHT22;26433;48.034;-1.764;2022-10-19T18:47:13;21.70;80.60
35305;DHT22;26433;48.034;-1.764;2022-10-19T18:52:17;21.60;80.90
35305;DHT22;26433;48.034;-1.764;2022-10-19T18:57:22;21.50;81.30
35305;DHT22;26433;48.034;-1.764;2022-10-19T19:02:33;21.50;81.70
35305;DHT22;26433;48.034;-1.764;2022-10-19T19:07:48;21.40;82.10
35305;DHT22;26433;48.034;-1.764;2022-10-19T19:12:53;21.50;82.30
35305;DHT22;26433;48.034;-1.764;2022-10-19T19:17:57;21.50;82.30
35305;DHT22;26433;48.034;-1.764;2022-10-19T19:23:00;21.50;82.30
35305;DHT22;26433;48.034;-1.764;2022-10-19T19:28:05;21.50;82.40
35305;DHT22;26433;48.034;-1.764;2022-10-19T19:33:09;21.50;82.80
35305;DHT22;26433;48.034;-1.764;2022-10-19T19:38:14;21.30;83.60
35305;DHT22;26433;48.034;-1.764;2022-10-19T19:43:19;21.20;84.30
35305;DHT22;26433;48.034;-1.764;2022-10-19T19:48:23;21.20;84.70
35305;DHT22;26433;48.034;-1.764;2022-10-19T19:53:26;21.20;84.70
35305;DHT22;26433;48.034;-1.764;2022-10-19T19:58:31;21.20;84.40
35305;DHT22;26433;48.034;-1.764;2022-10-19T20:03:35;21.20;84.90
35305;DHT22;26433;48.034;-1.764;2022-10-19T20:08:39;21.20;85.10
35305;DHT22;26433;48.034;-1.764;2022-10-19T20:13:44;21.10;85.80
35305;DHT22;26433;48.034;-1.764;2022-10-19T20:18:49;20.90;86.40
35305;DHT22;26433;48.034;-1.764;2022-10-19T20:23:53;20.90;86.90
35305;DHT22;26433;48.034;-1.764;2022-10-19T20:28:59;20.90;87.00
35305;DHT22;26433;48.034;-1.764;2022-10-19T20:34:06;20.90;86.90
35305;DHT22;26433;48.034;-1.764;2022-10-19T20:39:10;20.90;86.90
35305;DHT22;26433;48.034;-1.764;2022-10-19T20:44:15;20.90;87.00
35305;DHT22;26433;48.034;-1.764;2022-10-19T20:49:19;20.80;87.20
35305;DHT22;26433;48.034;-1.764;2022-10-19T20:54:23;20.80;87.20
35305;DHT22;26433;48.034;-1.764;2022-10-19T20:59:28;20.70;87.70
35305;DHT22;26433;48.034;-1.764;2022-10-19T21:04:33;20.70;88.10
35305;DHT22;26433;48.034;-1.764;2022-10-19T21:09:37;20.60;88.40
35305;DHT22;26433;48.034;-1.764;2022-10-19T21:14:42;20.50;88.70
35305;DHT22;26433;48.034;-1.764;2022-10-19T21:19:46;20.40;89.50
35305;DHT22;26433;48.034;-1.764;2022-10-19T21:24:49;20.30;90.20
35305;DHT22;26433;48.034;-1.764;2022-10-19T21:29:54;20.30;90.30
35305;DHT22;26433;48.034;-1.764;2022-10-19T21:34:58;20.30;90.10
35305;DHT22;26433;48.034;-1.764;2022-10-19T21:40:03;20.40;89.90
35305;DHT22;26433;48.034;-1.764;2022-10-19T21:45:09;20.40;89.70
35305;DHT22;26433;48.034;-1.764;2022-10-19T21:50:31;20.30;89.90
35305;DHT22;26433;48.034;-1.764;2022-10-19T21:55:35;20.30;90.00
35305;DHT22;26433;48.034;-1.764;2022-10-19T22:00:40;20.30;90.10
35305;DHT22;26433;48.034;-1.764;2022-10-19T22:05:51;20.20;90.10
35305;DHT22;26433;48.034;-1.764;2022-10-19T22:10:54;20.20;90.20
35305;DHT22;26433;48.034;-1.764;2022-10-19T22:16:03;20.20;90.30
35305;DHT22;26433;48.034;-1.764;2022-10-19T22:21:10;20.10;90.40
35305;DHT22;26433;48.034;-1.764;2022-10-19T22:26:15;20.00;90.50
